Time;durP1;ratioP1;P1;durP2;ratioP2;P2;SDS_P1;SDS_P2;PMS_P1;PMS_P2;Temp;Humidity;BMP_temperature;BMP_pressure;BME280_temperature;BME280_humidity;BME280_pressure;Samples;Min_cycle;Max_cycle;Signal;HPM_P1;HPM_P2
2020/12/01 00:00:08;;;;;;;8.00;5.38;;;4.70;99.90;;;;;;5093941;28;20075;-62
2020/12/01 00:02:35;;;;;;;9.10;5.55;;;4.70;99.90;;;;;;5093663;28;20047;-62
2020/12/01 00:05:03;;;;;;;8.38;5.93;;;4.60;99.90;;;;;;5090057;28;20055;-62
2020/12/01 00:07:31;;;;;;;8.63;5.43;;;4.70;99.90;;;;;;5093501;28;20053;-62
2020/12/01 00:09:58;;;;;;;9.05;5.80;;;4.70;99.90;;;;;;5093388;28;20052;-62
2020/12/01 00:12:25;;;;;;;9.70;6.88;;;4.60;99.90;;;;;;5093386;28;20048;-61
2020/12/01 00:14:51;;;;;;;11.05;6.03;;;4.70;99.90;;;;;;5093733;28;20044;-61
2020/12/01 00:17:18;;;;;;;10.43;6.45;;;4.60;99.90;;;;;;5093553;28;20489;-59
2020/12/01 00:19:45;;;;;;;9.55;6.05;;;4.70;99.90;;;;;;5088625;28;20474;-60
2020/12/01 00:22:12;;;;;;;14.73;6.55;;;4.60;99.90;;;;;;5093138;28;20135;-62
2020/12/01 00:24:39;;;;;;;14.55;7.43;;;4.70;99.90;;;;;;5093625;28;20056;-62
2020/12/01 00:27:06;;;;;;;14.70;8.20;;;4.50;99.90;;;;;;5093186;28;20085;-62
2020/12/01 00:29:33;;;;;;;21.27;8.40;;;4.50;99.90;;;;;;5093295;28;20055;-62
2020/12/01 00:31:59;;;;;;;22.23;8.93;;;4.40;99.90;;;;;;5093125;28;20052;-62
2020/12/01 00:34:26;;;;;;;22.23;10.80;;;4.30;99.90;;;;;;5088293;28;20097;-62
2020/12/01 00:36:53;;;;;;;24.02;10.98;;;4.30;99.90;;;;;;5093217;28;20051;-62
2020/12/01 00:39:20;;;;;;;22.90;10.43;;;4.10;99.90;;;;;;5093041;28;20052;-62
2020/12/01 00:41:51;;;;;;;27.13;11.88;;;4.20;99.90;;;;;;5092983;28;20507;-62
2020/12/01 00:44:18;;;;;;;27.92;12.50;;;4.20;99.90;;;;;;5093087;28;20052;-61
2020/12/01 00:46:44;;;;;;;32.20;13.20;;;4.20;99.90;;;;;;5092958;28;20048;-61
2020/12/01 00:49:11;;;;;;;32.25;12.77;;;4.20;99.90;;;;;;5088585;28;20477;-61
2020/12/01 00:51:40;;;;;;;35.72;13.57;;;4.30;99.90;;;;;;5072535;28;20048;-61
2020/12/01 00:54:07;;;;;;;27.88;11.15;;;4.20;99.90;;;;;;5072607;28;20053;-60
2020/12/01 00:56:34;;;;;;;26.42;11.50;;;4.20;99.90;;;;;;5072618;28;20059;-62
2020/12/01 00:59:01;;;;;;;24.58;11.75;;;4.20;99.90;;;;;;5072865;28;20126;-62
2020/12/01 01:01:30;;;;;;;23.58;10.75;;;4.20;99.90;;;;;;5072940;28;20504;-62
2020/12/01 01:03:57;;;;;;;28.40;12.68;;;4.20;99.90;;;;;;5074224;28;20083;-62
2020/12/01 01:06:24;;;;;;;23.35;9.60;;;4.20;99.90;;;;;;5072500;28;20053;-62
2020/12/01 01:08:51;;;;;;;31.85;10.77;;;4.30;99.90;;;;;;5072569;28;20052;-63
2020/12/01 01:11:27;;;;;;;25.35;11.40;;;4.20;99.90;;;;;;5072540;28;20049;-63
2020/12/01 01:13:54;;;;;;;31.23;13.55;;;4.10;99.90;;;;;;5072941;28;20045;-64
2020/12/01 01:16:25;;;;;;;27.20;11.57;;;4.20;99.90;;;;;;5072582;28;20060;-64
2020/12/01 01:18:52;;;;;;;21.38;9.85;;;4.40;99.90;;;;;;5073624;28;20550;-64
2020/12/01 01:21:19;;;;;;;17.55;9.90;;;4.50;99.90;;;;;;5088953;28;20442;-64
2020/12/01 01:23:45;;;;;;;27.70;10.40;;;4.50;99.90;;;;;;5092770;28;20077;-64
2020/12/01 01:26:12;;;;;;;24.98;10.45;;;4.50;99.90;;;;;;5092636;28;20101;-65
2020/12/01 01:28:40;;;;;;;17.83;8.73;;;4.30;99.90;;;;;;5092952;28;20095;-64
2020/12/01 01:31:07;;;;;;;19.92;8.60;;;4.30;99.90;;;;;;5092530;28;20055;-64
2020/12/01 01:33:33;;;;;;;22.92;8.82;;;4.50;99.90;;;;;;5089347;28;20071;-64
2020/12/01 01:36:00;;;;;;;16.40;7.80;;;4.50;99.90;;;;;;5073926;28;20425;-64
2020/12/01 01:38:27;;;;;;;17.95;8.07;;;4.40;99.90;;;;;;5092642;28;20055;-64
2020/12/01 01:40:56;;;;;;;17.08;7.90;;;4.30;99.90;;;;;;5092608;28;20059;-64
2020/12/01 01:43:23;;;;;;;16.77;6.78;;;4.40;99.90;;;;;;5092494;28;20082;-64
2020/12/01 01:45:51;;;;;;;23.38;8.75;;;4.50;99.90;;;;;;5092397;28;20081;-64
2020/12/01 01:48:22;;;;;;;18.05;7.63;;;4.40;99.90;;;;;;5092376;28;20530;-64
2020/12/01 01:50:57;;;;;;;19.05;7.93;;;4.40;99.90;;;;;;5088712;28;20421;-64
2020/12/01 01:53:24;;;;;;;12.52;6.40;;;4.30;99.90;;;;;;5095377;28;20126;-64
2020/12/01 01:55:55;;;;;;;13.90;7.07;;;4.40;99.90;;;;;;5096219;28;20048;-64
2020/12/01 01:58:25;;;;;;;14.25;7.10;;;4.30;99.90;;;;;;5096273;28;20055;-64
2020/12/01 02:01:01;;;;;;;11.00;6.25;;;4.30;99.90;;;;;;5096290;28;20509;-64
2020/12/01 02:03:35;;;;;;;11.68;6.22;;;4.40;99.90;;;;;;5093956;28;20055;-64
2020/12/01 02:06:03;;;;;;;10.35;5.28;;;4.20;99.90;;;;;;5075535;28;20048;-64
2020/12/01 02:08:30;;;;;;;12.98;7.28;;;4.20;99.90;;;;;;5075598;28;20052;-64
2020/12/01 02:10:58;;;;;;;11.85;6.72;;;4.10;99.90;;;;;;5075529;28;20438;-63
2020/12/01 02:13:38;;;;;;;17.45;7.38;;;4.30;99.90;;;;;;5075555;28;20044;-63
2020/12/01 02:16:06;;;;;;;14.57;7.25;;;4.10;99.90;;;;;;5091576;28;20500;-64
2020/12/01 02:18:37;;;;;;;14.07;7.40;;;4.20;99.90;;;;;;5095926;28;20083;-64
2020/12/01 02:21:31;;;;;;;15.48;8.23;;;4.20;99.90;;;;;;5095928;28;20081;-64
2020/12/01 02:24:00;;;;;;;14.20;8.02;;;4.30;99.90;;;;;;5095785;28;20052;-64
2020/12/01 02:26:28;;;;;;;12.88;8.13;;;4.30;99.90;;;;;;5095635;28;20073;-64
2020/12/01 02:28:55;;;;;;;14.32;8.45;;;4.50;99.90;;;;;;5092902;28;20504;-64
2020/12/01 02:31:22;;;;;;;15.38;8.55;;;4.30;99.90;;;;;;5093414;28;20436;-64
2020/12/01 02:33:49;;;;;;;16.00;8.48;;;4.20;99.90;;;;;;5095637;28;20052;-64
2020/12/01 02:36:16;;;;;;;18.08;10.02;;;4.40;99.90;;;;;;5095636;28;20451;-64
2020/12/01 02:38:43;;;;;;;16.52;9.70;;;4.50;99.90;;;;;;5095284;28;20059;-64
2020/12/01 02:41:10;;;;;;;14.68;9.40;;;4.60;99.90;;;;;;5095282;28;20055;-64
2020/12/01 02:43:40;;;;;;;19.83;11.05;;;4.70;99.90;;;;;;5095488;28;20066;-64
2020/12/01 02:46:07;;;;;;;20.27;9.23;;;4.80;99.90;;;;;;5078628;28;20056;-64
2020/12/01 02:48:33;;;;;;;17.02;9.02;;;4.80;99.90;;;;;;5074959;28;20393;-64
2020/12/01 02:51:00;;;;;;;17.00;8.35;;;4.70;99.90;;;;;;5074881;28;20052;-64
2020/12/01 02:53:27;;;;;;;21.40;9.98;;;4.80;99.90;;;;;;5074645;28;20048;-64
2020/12/01 02:55:53;;;;;;;17.95;10.25;;;4.70;99.90;;;;;;5074808;28;20048;-64
2020/12/01 02:58:20;;;;;;;16.45;9.05;;;4.70;99.90;;;;;;5074887;28;20060;-64
2020/12/01 03:00:50;;;;;;;16.58;9.65;;;4.90;99.90;;;;;;5077273;28;20060;-64
2020/12/01 03:03:16;;;;;;;16.25;9.70;;;4.80;99.90;;;;;;5074143;28;20064;-64
2020/12/01 03:05:43;;;;;;;16.58;9.27;;;4.80;99.90;;;;;;5075395;28;20094;-64
2020/12/01 03:08:10;;;;;;;17.27;10.20;;;4.80;99.90;;;;;;5093006;28;20369;-64
2020/12/01 03:10:37;;;;;;;18.30;10.05;;;5.00;99.90;;;;;;5094788;28;20109;-64
2020/12/01 03:13:03;;;;;;;16.67;9.45;;;4.90;99.90;;;;;;5094539;28;20047;-64
2020/12/01 03:15:30;;;;;;;17.00;9.95;;;4.80;99.90;;;;;;5094602;28;20048;-64
2020/12/01 03:17:57;;;;;;;17.60;9.77;;;4.90;99.90;;;;;;5094479;28;20056;-64
2020/12/01 03:20:24;;;;;;;18.35;10.20;;;4.90;99.90;;;;;;5095039;28;20097;-64
2020/12/01 03:22:51;;;;;;;21.00;10.65;;;4.90;99.90;;;;;;5089061;28;20079;-64
2020/12/01 03:25:17;;;;;;;20.20;9.60;;;4.90;99.90;;;;;;5094502;28;20052;-64
2020/12/01 03:27:44;;;;;;;19.55;10.98;;;4.80;99.90;;;;;;5094522;28;20106;-64
2020/12/01 03:30:11;;;;;;;15.52;9.52;;;4.80;99.90;;;;;;5094319;28;20048;-64
2020/12/01 03:32:38;;;;;;;17.88;9.45;;;4.60;99.90;;;;;;5094280;28;20048;-64
2020/12/01 03:35:05;;;;;;;19.13;9.98;;;4.70;99.90;;;;;;5094457;28;20047;-64
2020/12/01 03:37:32;;;;;;;20.20;11.18;;;4.80;99.90;;;;;;5076473;28;20131;-64
2020/12/01 03:39:58;;;;;;;17.85;9.88;;;4.80;99.90;;;;;;5074054;28;20053;-64
2020/12/01 03:42:25;;;;;;;16.92;9.90;;;4.80;99.90;;;;;;5073943;28;20067;-64
2020/12/01 03:44:52;;;;;;;18.50;10.10;;;4.90;99.90;;;;;;5074141;28;20048;-64
2020/12/01 03:47:18;;;;;;;16.85;9.70;;;5.00;99.90;;;;;;5073744;28;20098;-64
2020/12/01 03:49:45;;;;;;;16.90;9.20;;;5.00;99.90;;;;;;5073653;28;20052;-64
2020/12/01 03:52:13;;;;;;;16.45;8.52;;;5.00;99.90;;;;;;5076166;28;20044;-64
2020/12/01 03:54:39;;;;;;;18.25;9.73;;;5.00;99.90;;;;;;5074183;28;20183;-64
2020/12/01 03:57:07;;;;;;;15.02;8.90;;;5.10;99.90;;;;;;5073516;28;20462;-64
2020/12/01 03:59:33;;;;;;;18.38;9.48;;;5.10;99.90;;;;;;5073811;28;20059;-64
2020/12/01 04:02:00;;;;;;;16.75;9.50;;;5.20;99.90;;;;;;5073583;28;20052;-64
2020/12/01 04:04:28;;;;;;;16.40;9.57;;;5.30;99.90;;;;;;5073505;28;20052;-64
2020/12/01 04:06:56;;;;;;;15.10;9.05;;;5.40;99.90;;;;;;5076386;28;20048;-64
2020/12/01 04:09:25;;;;;;;15.10;8.80;;;5.50;99.90;;;;;;5073666;28;20553;-64
2020/12/01 04:11:52;;;;;;;17.17;9.38;;;5.40;99.90;;;;;;5073188;28;20044;-64
2020/12/01 04:14:19;;;;;;;18.42;10.43;;;5.30;99.90;;;;;;5073120;28;20060;-64
2020/12/01 04:16:45;;;;;;;20.02;10.35;;;5.20;99.90;;;;;;5073038;28;20053;-64
2020/12/01 04:19:13;;;;;;;19.30;9.18;;;5.10;99.90;;;;;;5073185;28;20059;-64
2020/12/01 04:21:40;;;;;;;21.98;10.85;;;5.20;99.90;;;;;;5075296;28;20048;-64
2020/12/01 04:24:06;;;;;;;18.77;9.80;;;5.20;99.90;;;;;;5073510;28;20056;-64
2020/12/01 04:26:34;;;;;;;22.73;11.27;;;5.10;99.90;;;;;;5073018;28;20512;-64
2020/12/01 04:29:00;;;;;;;19.75;9.93;;;5.10;99.90;;;;;;5073466;28;20048;-64
2020/12/01 04:31:27;;;;;;;17.48;9.82;;;5.00;99.90;;;;;;5073095;28;20555;-64
2020/12/01 04:33:54;;;;;;;19.17;10.73;;;4.90;99.90;;;;;;5073286;28;20056;-64
2020/12/01 04:36:21;;;;;;;19.23;10.32;;;4.90;99.90;;;;;;5075722;28;20049;-64
2020/12/01 04:38:48;;;;;;;21.85;11.55;;;4.90;99.90;;;;;;5073322;28;20135;-64
2020/12/01 04:41:15;;;;;;;21.65;10.85;;;5.10;99.90;;;;;;5073102;28;20055;-64
2020/12/01 04:43:47;;;;;;;22.15;11.18;;;5.00;99.90;;;;;;5073126;28;20485;-64
2020/12/01 04:46:18;;;;;;;20.27;11.38;;;5.10;99.90;;;;;;5072981;28;20052;-64
2020/12/01 04:48:48;;;;;;;23.35;12.13;;;5.10;99.90;;;;;;5073168;28;20118;-64
2020/12/01 04:51:44;;;;;;;20.95;11.35;;;4.90;99.90;;;;;;5074253;28;20539;-64
2020/12/01 04:54:44;;;;;;;23.77;12.02;;;5.10;99.90;;;;;;5072848;28;20055;-64
2020/12/01 04:57:28;;;;;;;;;;;5.20;99.90;;;;;;5060341;28;20109;-64
2020/12/01 05:00:14;;;;;;;25.33;12.20;;;5.30;99.90;;;;;;5073158;28;19925;-64
2020/12/01 05:02:51;;;;;;;22.38;11.50;;;5.30;99.90;;;;;;5072640;28;20087;-64
2020/12/01 05:05:49;;;;;;;26.65;12.15;;;5.20;99.90;;;;;;5072733;28;20087;-64
2020/12/01 05:08:37;;;;;;;22.42;11.18;;;5.20;99.90;;;;;;5073616;28;20106;-64
2020/12/01 05:11:20;;;;;;;27.27;13.18;;;5.00;99.90;;;;;;5072925;28;20052;-64
2020/12/01 05:13:52;;;;;;;31.83;13.88;;;5.00;99.90;;;;;;5072401;28;20056;-62
2020/12/01 05:16:39;;;;;;;22.35;12.60;;;5.10;99.90;;;;;;5072891;28;20143;-64
2020/12/01 05:19:32;;;;;;;29.83;12.55;;;5.20;99.90;;;;;;5072681;28;20048;-64
2020/12/01 05:21:59;;;;;;;27.70;12.80;;;5.20;99.90;;;;;;5072893;28;20063;-64
2020/12/01 05:24:39;;;;;;;29.13;13.52;;;4.90;99.90;;;;;;5072969;28;20394;-64
2020/12/01 05:27:06;;;;;;;;;;;4.80;99.90;;;;;;5075483;28;20048;-63
2020/12/01 05:29:32;;;;;;;27.35;13.30;;;4.70;99.90;;;;;;5078631;28;19920;-64
2020/12/01 05:32:00;;;;;;;27.45;13.45;;;4.90;99.90;;;;;;5076344;28;20045;-63
2020/12/01 05:34:27;;;;;;;26.13;13.45;;;5.20;99.90;;;;;;5076405;28;20389;-64
2020/12/01 05:36:54;;;;;;;26.45;11.73;;;5.30;99.90;;;;;;5076223;28;20049;-64
2020/12/01 05:39:22;;;;;;;28.05;12.52;;;5.10;99.90;;;;;;5076481;28;20496;-63
2020/12/01 05:42:01;;;;;;;26.77;12.50;;;5.10;99.90;;;;;;5076127;28;20049;-63
2020/12/01 05:44:30;;;;;;;26.48;12.75;;;5.10;99.90;;;;;;5079882;28;20094;-64
2020/12/01 05:47:02;;;;;;;25.83;13.07;;;5.10;99.90;;;;;;5076154;28;20540;-63
2020/12/01 05:49:36;;;;;;;26.40;13.48;;;5.00;99.90;;;;;;5075657;28;20455;-63
2020/12/01 05:52:05;;;;;;;23.92;12.25;;;5.00;99.90;;;;;;5076010;28;20482;-64
2020/12/01 05:54:38;;;;;;;25.45;12.60;;;4.90;99.90;;;;;;5076162;28;20435;-64
2020/12/01 05:57:17;;;;;;;26.40;13.40;;;5.00;99.90;;;;;;5075861;28;20102;-63
2020/12/01 05:59:54;;;;;;;22.85;12.30;;;5.10;99.90;;;;;;5088563;28;20051;-63
2020/12/01 06:02:33;;;;;;;25.95;13.95;;;5.30;99.90;;;;;;5096102;28;20048;-63
2020/12/01 06:05:02;;;;;;;26.88;13.07;;;5.40;99.90;;;;;;5096329;28;20398;-63
2020/12/01 06:07:30;;;;;;;22.45;12.00;;;5.40;99.90;;;;;;5096068;28;20489;-64
2020/12/01 06:10:34;;;;;;;25.15;13.05;;;5.40;99.90;;;;;;5095924;28;20492;-64
2020/12/01 06:13:42;;;;;;;24.23;12.95;;;5.20;99.90;;;;;;5094951;28;20465;-63
2020/12/01 06:16:33;;;;;;;26.77;13.00;;;5.30;99.90;;;;;;5071376;28;20056;-64
2020/12/01 06:19:09;;;;;;;23.77;12.68;;;5.40;99.90;;;;;;5075700;28;20501;-63
2020/12/01 06:22:10;;;;;;;21.73;12.48;;;5.50;99.90;;;;;;5075474;28;20193;-63
2020/12/01 06:25:08;;;;;;;24.05;11.90;;;5.50;99.90;;;;;;5075275;28;20064;-63
2020/12/01 06:28:10;;;;;;;24.33;12.75;;;5.60;99.90;;;;;;5075380;28;20055;-63
2020/12/01 06:31:09;;;;;;;21.63;11.90;;;5.60;99.90;;;;;;5077378;28;20056;-64
2020/12/01 06:34:05;;;;;;;25.80;13.02;;;5.70;99.90;;;;;;5050124;28;20051;-63
2020/12/01 06:37:09;;;;;;;25.92;13.43;;;5.80;99.90;;;;;;5075303;28;20053;-64
2020/12/01 06:39:46;;;;;;;23.63;13.50;;;5.60;99.90;;;;;;5071618;28;20049;-64
2020/12/01 06:42:17;;;;;;;22.83;12.45;;;5.80;99.90;;;;;;5075162;28;20076;-64
2020/12/01 06:44:46;;;;;;;24.65;12.55;;;5.90;99.90;;;;;;5074960;28;20500;-64
2020/12/01 06:47:13;;;;;;;22.85;12.48;;;5.90;99.90;;;;;;5082004;28;20070;-64
2020/12/01 06:49:40;;;;;;;24.17;13.20;;;6.00;99.90;;;;;;5108811;28;20096;-63
2020/12/01 06:52:14;;;;;;;24.10;12.02;;;6.00;99.90;;;;;;5114771;28;20058;-64
2020/12/01 06:54:48;;;;;;;27.33;13.25;;;5.90;99.90;;;;;;5086244;28;20045;-64
2020/12/01 06:57:25;;;;;;;23.27;12.77;;;6.10;99.90;;;;;;5088105;28;20091;-64
2020/12/01 06:59:54;;;;;;;23.65;12.15;;;6.10;99.90;;;;;;5083239;28;20449;-63
2020/12/01 07:02:27;;;;;;;23.83;12.50;;;6.10;99.90;;;;;;5085222;28;20044;-64
2020/12/01 07:05:12;;;;;;;20.00;12.63;;;6.00;99.90;;;;;;5075104;28;20049;-64
2020/12/01 07:07:41;;;;;;;26.55;12.88;;;6.10;99.90;;;;;;5074601;28;20045;-64
2020/12/01 07:10:26;;;;;;;23.35;12.63;;;6.10;99.90;;;;;;5075000;28;20390;-64
2020/12/01 07:12:57;;;;;;;23.25;12.45;;;6.10;99.90;;;;;;5099297;28;20477;-64
2020/12/01 07:15:34;;;;;;;23.58;13.07;;;6.00;99.90;;;;;;5115079;28;20051;-64
2020/12/01 07:18:09;;;;;;;25.38;12.93;;;6.00;99.90;;;;;;5089831;28;20048;-64
2020/12/01 07:20:41;;;;;;;21.65;12.27;;;5.90;99.90;;;;;;5094894;28;20044;-64
2020/12/01 07:23:25;;;;;;;22.58;13.20;;;5.90;99.90;;;;;;5090608;28;20048;-64
2020/12/01 07:26:02;;;;;;;27.13;14.27;;;5.90;99.90;;;;;;5081329;28;20072;-64
2020/12/01 07:28:36;;;;;;;26.20;14.13;;;6.00;99.90;;;;;;5079058;28;20048;-64
2020/12/01 07:31:17;;;;;;;31.95;14.82;;;6.00;99.90;;;;;;5074302;28;20478;-64
2020/12/01 07:33:51;;;;;;;27.33;14.30;;;6.10;99.90;;;;;;5089061;28;20048;-64
2020/12/01 07:36:29;;;;;;;29.38;14.57;;;6.10;99.90;;;;;;5094232;28;20055;-65
2020/12/01 07:39:09;;;;;;;30.30;14.27;;;6.10;99.90;;;;;;5089898;28;20058;-65
2020/12/01 07:41:44;;;;;;;;;;;6.20;99.90;;;;;;5092411;28;20058;-65
2020/12/01 07:44:14;;;;;;;34.30;14.75;;;6.20;99.90;;;;;;5091674;28;20026;-65
2020/12/01 07:46:48;;;;;;;30.20;15.43;;;6.10;99.90;;;;;;5085741;28;20135;-65
2020/12/01 07:49:17;;;;;;;32.58;15.88;;;6.00;99.90;;;;;;5089289;28;20412;-65
2020/12/01 07:51:47;;;;;;;30.33;15.15;;;6.30;99.90;;;;;;5089991;28;20411;-65
2020/12/01 07:54:19;;;;;;;33.43;15.60;;;6.30;99.90;;;;;;5091510;28;20122;-65
2020/12/01 07:56:46;;;;;;;30.08;16.52;;;6.40;99.90;;;;;;5087380;28;20102;-65
2020/12/01 07:59:15;;;;;;;33.97;15.27;;;6.30;99.90;;;;;;5091422;28;20052;-65
2020/12/01 08:01:42;;;;;;;29.52;15.35;;;6.30;99.90;;;;;;5088820;28;20054;-65
2020/12/01 08:04:13;;;;;;;33.47;16.65;;;6.40;99.90;;;;;;5081872;28;20097;-65
2020/12/01 08:06:40;;;;;;;32.83;16.08;;;6.40;99.90;;;;;;5090602;28;20109;-65
2020/12/01 08:09:12;;;;;;;34.00;16.55;;;6.50;99.90;;;;;;5089962;28;20055;-65
2020/12/01 08:11:42;;;;;;;34.50;15.68;;;6.50;99.90;;;;;;5090064;28;20514;-65
2020/12/01 08:14:09;;;;;;;33.47;15.55;;;6.60;99.90;;;;;;5090305;28;20142;-65
2020/12/01 08:16:37;;;;;;;36.55;17.17;;;6.70;99.90;;;;;;5090924;28;20193;-65
2020/12/01 08:19:05;;;;;;;39.08;16.73;;;6.70;99.90;;;;;;5088172;28;20044;-65
2020/12/01 08:21:35;;;;;;;36.38;16.95;;;6.60;99.90;;;;;;5090886;28;20139;-65
2020/12/01 08:24:04;;;;;;;36.22;16.30;;;6.60;99.90;;;;;;5090710;28;20052;-65
2020/12/01 08:26:33;;;;;;;32.10;15.73;;;6.60;99.90;;;;;;5091092;28;20110;-65
2020/12/01 08:29:05;;;;;;;34.88;17.02;;;6.50;99.90;;;;;;5088794;28;20052;-65
2020/12/01 08:31:42;;;;;;;38.75;18.83;;;6.70;99.90;;;;;;5090054;28;20048;-65
2020/12/01 08:34:23;;;;;;;37.42;17.00;;;6.70;99.90;;;;;;5080378;28;20052;-65
2020/12/01 08:37:04;;;;;;;40.67;17.92;;;6.60;99.90;;;;;;5089007;28;20044;-65
2020/12/01 08:39:44;;;;;;;38.50;17.40;;;6.70;99.90;;;;;;5084683;28;20052;-66
2020/12/01 08:42:15;;;;;;;;;;;6.70;99.90;;;;;;5089288;28;20508;-66
2020/12/01 08:44:47;;;;;;;40.95;17.67;;;6.70;99.90;;;;;;5091176;28;19943;-66
2020/12/01 08:47:14;;;;;;;40.17;16.75;;;6.70;99.90;;;;;;5088143;28;20048;-66
2020/12/01 08:49:43;;;;;;;39.15;17.65;;;6.70;99.90;;;;;;5085321;28;20040;-66
2020/12/01 08:52:37;;;;;;;37.53;15.95;;;6.60;99.90;;;;;;5067830;28;20809;-66
2020/12/01 08:55:20;;;;;;;36.42;17.08;;;6.60;99.90;;;;;;5069771;28;20080;-66
2020/12/01 08:57:50;;;;;;;40.80;17.88;;;6.60;99.90;;;;;;5068349;28;20089;-66
2020/12/01 09:00:18;;;;;;;37.92;16.33;;;6.80;99.90;;;;;;5070337;28;20143;-66
2020/12/01 09:02:48;;;;;;;39.13;18.20;;;6.80;99.90;;;;;;5069730;28;20060;-66
2020/12/01 09:05:28;;;;;;;36.28;16.58;;;6.90;99.90;;;;;;5069439;28;20481;-66
2020/12/01 09:08:20;;;;;;;38.33;16.75;;;6.80;99.90;;;;;;5070030;28;20083;-66
2020/12/01 09:10:46;;;;;;;37.97;16.45;;;6.70;99.90;;;;;;5070504;28;20059;-66
2020/12/01 09:13:21;;;;;;;39.50;16.65;;;6.90;99.90;;;;;;5068290;28;20114;-66
2020/12/01 09:16:05;;;;;;;33.15;15.70;;;6.70;99.90;;;;;;5070321;28;20114;-66
2020/12/01 09:18:56;;;;;;;37.33;16.30;;;6.60;99.90;;;;;;5065212;28;20064;-65
2020/12/01 09:24:18;;;;;;;37.13;17.52;;;6.70;99.90;;;;;;5051626;28;20059;-65
2020/12/01 09:26:46;;;;;;;36.38;16.77;;;6.80;99.90;;;;;;5070210;28;20110;-65
2020/12/01 09:29:12;;;;;;;40.17;17.55;;;6.80;99.90;;;;;;5070009;28;20076;-65
2020/12/01 09:31:40;;;;;;;37.67;17.40;;;6.80;99.90;;;;;;5069806;28;20057;-65
2020/12/01 09:34:10;;;;;;;50.10;19.63;;;6.90;99.90;;;;;;5067008;28;20470;-65
2020/12/01 09:36:36;;;;;;;;;;;6.90;99.90;;;;;;5085398;28;20048;-66
2020/12/01 09:39:04;;;;;;;48.03;19.70;;;7.00;99.90;;;;;;5069738;28;20392;-65
2020/12/01 09:41:31;;;;;;;48.55;19.88;;;6.90;99.90;;;;;;5070176;28;20048;-65
2020/12/01 09:44:02;;;;;;;47.55;18.65;;;7.10;99.90;;;;;;5067571;28;20051;-65
2020/12/01 09:46:36;;;;;;;42.90;18.13;;;7.10;99.90;;;;;;5070105;28;20511;-65
2020/12/01 09:49:03;;;;;;;54.50;19.98;;;7.20;99.90;;;;;;5067324;28;20048;-65
2020/12/01 09:51:31;;;;;;;49.33;18.13;;;7.30;99.90;;;;;;5083570;28;20048;-65
2020/12/01 09:54:18;;;;;;;53.20;19.77;;;7.20;99.90;;;;;;5079386;28;20075;-65
2020/12/01 09:56:51;;;;;;;52.92;20.08;;;7.20;99.90;;;;;;5088888;28;20420;-64
2020/12/01 10:07:41;;;;;;;59.47;22.08;;;7.30;99.90;;;;;;5086536;28;20058;-65
2020/12/01 10:10:21;;;;;;;65.30;21.15;;;7.30;99.90;;;;;;5089687;28;20059;-65
2020/12/01 10:12:56;;;;;;;67.68;23.00;;;7.40;99.90;;;;;;5090103;28;20067;-65
2020/12/01 10:33:58;;;;;;;57.53;19.60;;;7.50;99.90;;;;;;5093120;28;20074;-65
2020/12/01 10:35:27;;;;;;;61.03;20.58;;;7.60;99.90;;;;;;5089746;28;20044;-65
2020/12/01 10:37:55;;;;;;;67.80;23.27;;;7.50;99.90;;;;;;5092402;28;20059;-65
2020/12/01 10:40:23;;;;;;;59.88;20.50;;;7.60;99.90;;;;;;5093228;28;20052;-65
2020/12/01 10:42:50;;;;;;;62.38;20.27;;;7.60;99.90;;;;;;5090878;28;20509;-65
2020/12/01 10:45:19;;;;;;;60.42;21.08;;;7.50;99.90;;;;;;5084183;28;20126;-65
2020/12/01 10:47:46;;;;;;;61.93;20.13;;;7.60;99.90;;;;;;5091064;28;20504;-65
2020/12/01 10:50:15;;;;;;;59.15;20.63;;;7.50;99.90;;;;;;5090038;28;20557;-65
2020/12/01 10:52:41;;;;;;;59.28;21.70;;;7.60;99.90;;;;;;5090942;28;20048;-65
2020/12/01 10:55:10;;;;;;;54.10;18.50;;;7.60;99.90;;;;;;5092455;28;20085;-65
2020/12/01 10:57:38;;;;;;;72.70;22.20;;;7.60;99.90;;;;;;5092459;28;20097;-65
2020/12/01 11:00:06;;;;;;;57.65;18.80;;;7.60;99.90;;;;;;5091332;28;20135;-65
2020/12/01 11:02:33;;;;;;;60.45;20.75;;;7.50;99.90;;;;;;5092528;28;20048;-65
2020/12/01 11:04:59;;;;;;;55.47;19.65;;;7.40;99.90;;;;;;5092647;28;20439;-65
2020/12/01 11:07:26;;;;;;;53.70;19.15;;;7.40;99.90;;;;;;5092247;28;20048;-65
2020/12/01 11:09:53;;;;;;;61.53;20.17;;;7.40;99.90;;;;;;5091296;28;20527;-65
2020/12/01 11:12:20;;;;;;;49.17;17.48;;;7.30;99.90;;;;;;5089384;28;20095;-70
2020/12/01 11:14:48;;;;;;;58.58;19.95;;;7.50;99.90;;;;;;5078940;28;20366;-64
2020/12/01 11:17:15;;;;;;;49.30;17.05;;;7.70;99.90;;;;;;5084340;28;20050;-66
2020/12/01 11:19:42;;;;;;;50.83;18.02;;;7.60;99.90;;;;;;5083158;28;20044;-65
2020/12/01 11:22:09;;;;;;;41.15;15.98;;;7.60;99.90;;;;;;5080402;28;20064;-65
2020/12/01 11:24:36;;;;;;;39.42;15.43;;;7.50;99.90;;;;;;5077210;28;20098;-65
2020/12/01 11:27:05;;;;;;;46.05;16.50;;;7.50;99.90;;;;;;5081583;28;20516;-65
2020/12/01 11:29:32;;;;;;;36.28;15.52;;;7.50;99.90;;;;;;5079431;28;20396;-66
2020/12/01 11:31:59;;;;;;;38.20;15.27;;;7.60;99.90;;;;;;5074206;28;20056;-65
2020/12/01 11:34:26;;;;;;;38.88;14.40;;;7.70;99.90;;;;;;5089590;28;20048;-65
2020/12/01 11:36:56;;;;;;;34.22;14.43;;;7.70;99.90;;;;;;5079291;28;20045;-66
2020/12/01 11:39:23;;;;;;;36.63;15.60;;;7.50;99.90;;;;;;5080308;28;20448;-65
2020/12/01 11:41:52;;;;;;;28.77;13.18;;;7.60;99.90;;;;;;5077293;28;20063;-65
2020/12/01 11:44:19;;;;;;;28.27;12.23;;;7.80;99.90;;;;;;5083013;28;20060;-65
2020/12/01 11:46:45;;;;;;;31.92;14.27;;;7.70;99.90;;;;;;5075406;28;20048;-65
2020/12/01 11:49:13;;;;;;;29.27;12.57;;;7.80;99.90;;;;;;5079453;28;20064;-65
2020/12/01 11:51:41;;;;;;;26.15;12.68;;;7.90;99.90;;;;;;5070996;28;20048;-65
2020/12/01 11:54:10;;;;;;;29.45;13.40;;;8.00;99.90;;;;;;5083914;28;20056;-65
2020/12/01 11:56:37;;;;;;;30.95;13.57;;;8.00;99.90;;;;;;5085978;28;20060;-65
2020/12/01 11:59:07;;;;;;;31.63;13.52;;;8.10;99.90;;;;;;5081759;28;20047;-65
2020/12/01 12:01:34;;;;;;;32.70;14.73;;;8.10;99.90;;;;;;5081449;28;20139;-65
2020/12/01 12:04:01;;;;;;;27.58;13.23;;;8.20;99.90;;;;;;5075080;28;20052;-65
2020/12/01 12:06:29;;;;;;;22.48;11.05;;;8.20;99.90;;;;;;5070677;28;20056;-65
2020/12/01 12:08:56;;;;;;;21.35;11.65;;;8.30;99.90;;;;;;5081222;28;20051;-65
2020/12/01 12:11:22;;;;;;;19.88;12.05;;;8.30;99.90;;;;;;5091421;28;20071;-65
2020/12/01 12:13:50;;;;;;;18.50;11.82;;;8.40;99.90;;;;;;5074532;28;20089;-65
2020/12/01 12:16:18;;;;;;;21.88;11.52;;;8.50;99.90;;;;;;5070936;28;20071;-65
2020/12/01 12:18:45;;;;;;;22.27;10.60;;;8.50;99.90;;;;;;5070914;28;20055;-65
2020/12/01 12:21:13;;;;;;;23.00;11.60;;;8.50;99.90;;;;;;5071208;28;20045;-64
2020/12/01 12:23:40;;;;;;;22.35;12.00;;;8.40;99.90;;;;;;5070459;28;20048;-64
2020/12/01 12:26:07;;;;;;;24.88;13.70;;;8.50;99.90;;;;;;5070801;28;20161;-64
2020/12/01 12:28:34;;;;;;;23.63;13.40;;;8.40;99.90;;;;;;5074181;28;20181;-64
2020/12/01 12:31:02;;;;;;;21.70;11.95;;;8.50;99.90;;;;;;5080584;28;20055;-64
2020/12/01 12:33:30;;;;;;;22.05;12.27;;;8.60;99.90;;;;;;5074980;28;20088;-64
2020/12/01 12:36:00;;;;;;;20.50;11.95;;;8.60;99.90;;;;;;5069388;28;20049;-64
2020/12/01 12:38:28;;;;;;;19.63;11.27;;;8.60;99.90;;;;;;5078125;28;20040;-64
2020/12/01 12:40:56;;;;;;;20.25;11.30;;;8.50;99.90;;;;;;5090374;28;20071;-64
2020/12/01 12:43:26;;;;;;;23.40;11.75;;;8.60;99.90;;;;;;5076304;28;20052;-64
2020/12/01 12:45:53;;;;;;;20.77;12.07;;;8.60;99.90;;;;;;5081545;28;20040;-64
2020/12/01 12:48:22;;;;;;;22.48;11.75;;;8.50;99.90;;;;;;5075788;28;20048;-64
2020/12/01 12:50:49;;;;;;;19.90;10.25;;;8.30;99.90;;;;;;5064319;28;20068;-64
2020/12/01 12:53:16;;;;;;;22.75;12.05;;;8.30;99.90;;;;;;5053260;28;20545;-64
2020/12/01 12:55:42;;;;;;;18.92;11.43;;;8.40;99.90;;;;;;5065372;28;20044;-64
2020/12/01 12:58:10;;;;;;;19.85;12.27;;;8.50;99.90;;;;;;5064240;28;20072;-64
2020/12/01 13:00:37;;;;;;;19.90;11.30;;;8.50;99.90;;;;;;5062446;28;20481;-64
2020/12/01 13:03:04;;;;;;;19.02;11.07;;;8.40;99.90;;;;;;5066316;28;20053;-64
2020/12/01 13:05:31;;;;;;;19.73;10.75;;;8.40;99.90;;;;;;5083717;28;20048;-64
2020/12/01 13:07:58;;;;;;;18.90;9.93;;;8.30;99.90;;;;;;5077109;28;20401;-63
2020/12/01 13:10:25;;;;;;;18.48;10.50;;;8.10;99.90;;;;;;5068684;28;20044;-63
2020/12/01 13:12:52;;;;;;;15.95;9.82;;;8.10;99.90;;;;;;5078238;28;20064;-63
2020/12/01 13:15:23;;;;;;;17.42;10.05;;;8.10;99.90;;;;;;5068004;28;20052;-63
2020/12/01 13:17:49;;;;;;;14.52;9.38;;;8.30;99.90;;;;;;5063106;28;20067;-64
2020/12/01 13:20:21;;;;;;;15.18;9.68;;;8.30;99.90;;;;;;5073750;28;20059;-64
2020/12/01 13:22:48;;;;;;;15.50;9.13;;;8.30;99.90;;;;;;5069106;28;20051;-64
2020/12/01 13:25:15;;;;;;;15.05;9.07;;;8.30;99.90;;;;;;5064587;28;20060;-63
2020/12/01 13:27:42;;;;;;;15.65;9.57;;;8.20;99.90;;;;;;5062393;28;20063;-63